createdAt,value
2022-12-26T00:01:13.624Z,7.68
2022-12-26T00:03:40.506Z,7.72
2022-12-26T00:06:12.734Z,7.75
2022-12-26T00:08:41.145Z,8.90
2022-12-26T00:11:07.968Z,8.40
2022-12-26T00:13:39.041Z,7.80
2022-12-26T00:16:09.353Z,7.97
2022-12-26T00:18:36.253Z,9.00
2022-12-26T00:21:03.032Z,8.95
2022-12-26T00:23:31.463Z,7.00
2022-12-26T00:26:03.947Z,8.52
2022-12-26T00:28:30.634Z,7.28
2022-12-26T00:30:57.300Z,7.97
2022-12-26T00:33:23.986Z,9.80
2022-12-26T00:35:50.727Z,8.60
2022-12-26T00:38:17.443Z,8.95
2022-12-26T00:40:44.297Z,7.18
2022-12-26T00:43:12.331Z,7.88
2022-12-26T00:45:39.135Z,6.93
2022-12-26T00:48:06.203Z,7.78
2022-12-26T00:50:35.005Z,10.38
2022-12-26T00:53:01.899Z,6.45
2022-12-26T00:55:28.685Z,6.38
2022-12-26T00:57:55.367Z,7.75
2022-12-26T01:00:23.643Z,7.47
2022-12-26T01:02:50.496Z,7.00
2022-12-26T01:05:17.437Z,6.78
2022-12-26T01:08:19.947Z,6.90
2022-12-26T01:10:30.807Z,7.57
2022-12-26T01:12:57.521Z,7.70
2022-12-26T01:15:25.585Z,8.50
2022-12-26T01:17:52.594Z,6.80
2022-12-26T01:20:19.415Z,8.43
2022-12-26T01:22:46.163Z,7.55
2022-12-26T01:25:12.873Z,7.38
2022-12-26T01:27:39.585Z,7.88
2022-12-26T01:30:07.907Z,5.63
2022-12-26T01:32:36.043Z,7.10
2022-12-26T01:35:03.100Z,5.75
2022-12-26T01:37:29.827Z,6.60
2022-12-26T01:39:56.584Z,6.93
2022-12-26T01:42:25.591Z,6.90
2022-12-26T01:45:00.286Z,6.00
2022-12-26T01:47:38.426Z,5.55
2022-12-26T01:50:07.404Z,6.00
2022-12-26T01:52:38.783Z,6.40
2022-12-26T01:55:08.631Z,7.70
2022-12-26T01:57:40.598Z,5.72
2022-12-26T02:00:10.072Z,6.15
2022-12-26T02:02:38.438Z,6.90
2022-12-26T02:05:05.790Z,6.28
2022-12-26T02:07:33.691Z,5.18
2022-12-26T02:10:00.681Z,7.28
2022-12-26T02:12:34.361Z,8.05
2022-12-26T02:15:06.296Z,6.03
2022-12-26T02:17:33.080Z,5.93
2022-12-26T02:20:08.904Z,5.18
2022-12-26T02:23:00.760Z,4.82
2022-12-26T02:25:54.918Z,5.45
2022-12-26T02:28:49.282Z,5.60
2022-12-26T02:31:23.051Z,4.90
2022-12-26T02:34:02.542Z,6.00
2022-12-26T02:36:49.160Z,5.00
2022-12-26T02:39:44.689Z,4.90
2022-12-26T02:42:28.584Z,4.43
2022-12-26T02:45:03.534Z,5.00
2022-12-26T02:47:36.777Z,5.93
2022-12-26T02:50:12.329Z,5.55
2022-12-26T02:52:50.642Z,7.10
2022-12-26T02:55:25.134Z,6.32
2022-12-26T02:57:59.499Z,6.18
2022-12-26T03:00:28.281Z,5.22
2022-12-26T03:03:01.164Z,5.35
2022-12-26T03:05:30.790Z,6.30
2022-12-26T03:07:59.064Z,6.95
2022-12-26T03:10:31.847Z,6.18
2022-12-26T03:13:04.226Z,6.35
2022-12-26T03:15:34.360Z,5.07
2022-12-26T03:18:05.790Z,5.38
2022-12-26T03:20:35.321Z,6.40
2022-12-26T03:23:06.759Z,5.55
2022-12-26T03:25:40.665Z,5.40
2022-12-26T03:28:07.846Z,6.95
2022-12-26T03:30:34.768Z,8.10
2022-12-26T03:33:02.940Z,6.32
2022-12-26T03:35:32.414Z,7.18
2022-12-26T03:38:04.218Z,10.65
2022-12-26T03:40:46.391Z,5.25
2022-12-26T03:43:25.429Z,5.10
2022-12-26T03:45:59.585Z,5.65
2022-12-26T03:48:32.501Z,7.50
2022-12-26T03:51:08.081Z,6.53
2022-12-26T03:53:40.659Z,6.35
2022-12-26T03:56:12.920Z,6.13
2022-12-26T03:58:45.099Z,5.35
2022-12-26T04:01:19.170Z,6.35
2022-12-26T04:03:49.285Z,6.00
2022-12-26T04:06:19.800Z,5.63
2022-12-26T04:08:51.694Z,6.70
2022-12-26T04:11:19.538Z,6.97
2022-12-26T04:13:53.991Z,6.30
2022-12-26T04:16:28.191Z,6.22
2022-12-26T04:19:06.019Z,7.25
2022-12-26T04:21:42.384Z,5.30
2022-12-26T04:24:14.942Z,6.13
2022-12-26T04:26:46.101Z,5.72
2022-12-26T04:29:12.909Z,5.38
2022-12-26T04:31:45.916Z,5.50
2022-12-26T04:34:22.556Z,5.93
2022-12-26T04:36:53.890Z,5.13
2022-12-26T04:39:25.468Z,5.93
2022-12-26T04:41:54.181Z,6.15
2022-12-26T04:44:22.368Z,6.22
2022-12-26T04:46:49.710Z,6.70
2022-12-26T04:49:18.464Z,6.32
2022-12-26T04:51:45.136Z,4.82
2022-12-26T04:54:11.891Z,6.07
2022-12-26T04:56:38.567Z,5.32
2022-12-26T04:59:05.301Z,5.80
2022-12-26T05:01:32.052Z,6.82
2022-12-26T05:03:58.972Z,6.85
2022-12-26T05:06:27.137Z,5.35
2022-12-26T05:08:53.854Z,6.63
2022-12-26T05:11:20.920Z,5.75
2022-12-26T05:13:47.610Z,5.07
2022-12-26T05:16:14.537Z,7.20
2022-12-26T05:18:41.362Z,5.55
2022-12-26T05:21:12.422Z,5.72
2022-12-26T05:23:40.487Z,4.50
2022-12-26T05:26:15.260Z,7.05
2022-12-26T05:28:42.183Z,5.35
2022-12-26T05:31:09.678Z,6.45
2022-12-26T05:33:36.484Z,6.28
2022-12-26T05:36:03.519Z,7.68
2022-12-26T05:38:30.270Z,4.88
2022-12-26T05:40:58.405Z,6.72
2022-12-26T05:43:25.060Z,5.97
2022-12-26T05:45:51.876Z,7.68
2022-12-26T05:48:18.636Z,7.20
2022-12-26T05:50:45.338Z,6.63
2022-12-26T05:53:12.094Z,6.18
2022-12-26T05:55:39.081Z,5.53
2022-12-26T05:58:07.150Z,5.18
2022-12-26T06:00:35.155Z,6.78
2022-12-26T06:03:02.041Z,6.30
2022-12-26T06:05:29.326Z,5.95
2022-12-26T06:07:56.072Z,5.43
2022-12-26T06:10:22.884Z,5.40
2022-12-26T06:12:49.649Z,5.30
2022-12-26T06:15:17.987Z,7.38
2022-12-26T06:17:44.783Z,4.93
2022-12-26T06:20:11.922Z,7.10
2022-12-26T06:22:38.690Z,5.18
2022-12-26T06:25:06.311Z,5.32
2022-12-26T06:27:33.058Z,5.53
2022-12-26T06:29:59.793Z,5.07
2022-12-26T06:32:28.050Z,5.47
2022-12-26T06:34:54.755Z,4.88
2022-12-26T06:37:21.452Z,7.22
2022-12-26T06:39:48.147Z,5.32
2022-12-26T06:42:14.898Z,5.30
2022-12-26T06:44:41.602Z,6.20
2022-12-26T06:47:08.518Z,6.03
2022-12-26T06:49:36.651Z,6.20
2022-12-26T06:52:03.688Z,7.10
2022-12-26T06:54:30.426Z,6.00
2022-12-26T06:56:57.236Z,5.82
2022-12-26T06:59:24.124Z,5.00
2022-12-26T07:01:51.087Z,8.00
2022-12-26T07:04:17.903Z,5.38
2022-12-26T07:06:46.011Z,6.65
2022-12-26T07:09:15.208Z,5.55
2022-12-26T07:11:44.360Z,6.00
2022-12-26T07:14:11.864Z,5.32
2022-12-26T07:16:40.185Z,4.90
2022-12-26T07:19:06.991Z,5.13
2022-12-26T07:21:40.101Z,7.18
2022-12-26T07:24:14.827Z,5.40
2022-12-26T07:26:41.811Z,5.05
2022-12-26T07:29:10.934Z,5.55
2022-12-26T07:31:38.069Z,6.15
2022-12-26T07:34:04.801Z,4.93
2022-12-26T07:36:31.519Z,5.50
2022-12-26T07:38:58.256Z,6.13
2022-12-26T07:41:26.371Z,7.00
2022-12-26T07:43:53.125Z,6.20
2022-12-26T07:46:21.075Z,6.90
2022-12-26T07:48:48.105Z,6.53
2022-12-26T07:51:14.829Z,5.68
2022-12-26T07:53:41.548Z,5.57
2022-12-26T07:56:08.358Z,6.85
2022-12-26T07:58:36.496Z,5.57
2022-12-26T08:01:04.612Z,7.72
2022-12-26T08:03:31.614Z,5.68
2022-12-26T08:05:58.953Z,7.30
2022-12-26T08:08:25.690Z,6.15
2022-12-26T08:10:59.026Z,6.43
2022-12-26T08:13:25.856Z,7.60
2022-12-26T08:15:53.957Z,4.75
2022-12-26T08:18:20.872Z,7.72
2022-12-26T08:20:47.658Z,4.78
2022-12-26T08:23:14.430Z,6.45
2022-12-26T08:25:41.311Z,6.63
2022-12-26T08:28:08.370Z,7.40
2022-12-26T08:30:35.147Z,5.43
2022-12-26T08:33:03.333Z,4.72
2022-12-26T08:35:30.102Z,7.40
2022-12-26T08:37:56.877Z,5.50
2022-12-26T08:40:41.922Z,7.47
2022-12-26T08:43:31.914Z,7.68
2022-12-26T08:46:00.851Z,7.18
2022-12-26T08:48:29.590Z,6.93
2022-12-26T08:50:58.272Z,9.43
2022-12-26T08:53:25.537Z,6.30
2022-12-26T08:55:52.799Z,6.10
2022-12-26T08:58:19.876Z,6.93
2022-12-26T09:00:51.838Z,7.15
2022-12-26T09:03:21.919Z,8.32
2022-12-26T09:05:50.219Z,9.68
2022-12-26T09:08:16.962Z,5.10
2022-12-26T09:10:43.654Z,7.25
2022-12-26T09:13:10.372Z,7.65
2022-12-26T09:15:38.114Z,7.43
2022-12-26T09:18:06.144Z,6.75
2022-12-26T09:20:33.560Z,7.35
2022-12-26T09:23:01.840Z,7.43
2022-12-26T09:25:28.651Z,5.22
2022-12-26T09:27:59.170Z,5.30
2022-12-26T09:30:26.583Z,6.93
2022-12-26T09:32:53.670Z,9.60
2022-12-26T09:35:20.329Z,7.95
2022-12-26T09:37:50.186Z,9.32
2022-12-26T09:40:31.275Z,8.30
2022-12-26T09:43:09.315Z,7.10
2022-12-26T09:46:01.495Z,8.32
2022-12-26T09:48:33.344Z,7.47
2022-12-26T09:51:00.162Z,5.65
2022-12-26T09:53:30.941Z,7.20
2022-12-26T09:56:02.189Z,7.07
2022-12-26T09:58:31.097Z,6.97
2022-12-26T10:01:02.940Z,6.97
2022-12-26T10:03:31.072Z,8.07
2022-12-26T10:06:14.810Z,7.82
2022-12-26T10:09:11.830Z,6.90
2022-12-26T10:12:00.997Z,8.18
2022-12-26T10:14:36.718Z,7.47
2022-12-26T10:17:11.394Z,6.65
2022-12-26T10:19:49.459Z,8.05
2022-12-26T10:22:32.687Z,8.52
2022-12-26T10:25:01.482Z,14.27
2022-12-26T10:27:37.693Z,9.23
2022-12-26T10:30:11.151Z,7.82
2022-12-26T10:32:41.627Z,10.35
2022-12-26T10:35:22.279Z,9.85
2022-12-26T10:37:49.659Z,8.43
2022-12-26T10:40:20.572Z,7.82
2022-12-26T10:42:53.250Z,9.48
2022-12-26T10:45:27.497Z,9.10
2022-12-26T10:47:54.976Z,8.10
2022-12-26T10:50:27.642Z,7.47
2022-12-26T10:52:56.030Z,8.38
2022-12-26T10:55:31.780Z,7.63
2022-12-26T10:58:07.019Z,7.43
2022-12-26T11:00:34.631Z,7.78
2022-12-26T11:03:06.435Z,7.30
2022-12-26T11:08:25.461Z,6.30
2022-12-26T11:11:02.844Z,5.75
2022-12-26T11:13:35.272Z,7.63
2022-12-26T11:16:02.194Z,8.20
2022-12-26T11:18:35.811Z,6.90
2022-12-26T11:21:13.097Z,6.85
2022-12-26T11:23:39.884Z,7.28
2022-12-26T11:26:20.565Z,8.00
2022-12-26T11:29:05.826Z,5.80
2022-12-26T11:31:32.826Z,6.07
2022-12-26T11:34:01.123Z,6.45
2022-12-26T11:36:29.558Z,6.72
2022-12-26T11:38:59.786Z,7.38
2022-12-26T11:41:36.953Z,8.32
2022-12-26T11:44:18.758Z,6.10
2022-12-26T11:46:49.408Z,7.07
2022-12-26T11:49:19.634Z,6.97
2022-12-26T11:51:51.784Z,7.05
2022-12-26T11:54:27.452Z,6.40
2022-12-26T11:57:19.514Z,6.13
2022-12-26T11:59:48.889Z,8.85
2022-12-26T12:02:24.372Z,8.60
2022-12-26T12:04:53.674Z,8.38
2022-12-26T12:07:35.332Z,8.13
2022-12-26T12:10:13.470Z,5.45
2022-12-26T12:12:46.051Z,6.20
2022-12-26T12:15:18.296Z,6.50
2022-12-26T12:18:01.803Z,7.13
2022-12-26T12:20:35.985Z,7.38
2022-12-26T12:23:17.448Z,5.70
2022-12-26T12:26:01.217Z,5.95
2022-12-26T12:28:51.829Z,5.57
2022-12-26T12:31:30.657Z,5.63
2022-12-26T12:34:08.685Z,6.45
2022-12-26T12:36:40.069Z,6.80
2022-12-26T12:39:12.197Z,5.35
2022-12-26T12:42:03.152Z,5.55
2022-12-26T12:44:43.224Z,4.85
2022-12-26T12:47:21.865Z,6.50
2022-12-26T12:49:58.814Z,6.97
2022-12-26T12:52:39.995Z,6.55
2022-12-26T12:55:41.060Z,6.70
2022-12-26T12:58:14.924Z,7.15
2022-12-26T13:00:45.540Z,7.10
2022-12-26T13:03:25.290Z,5.40
2022-12-26T13:05:59.570Z,5.03
2022-12-26T13:08:31.042Z,6.78
2022-12-26T13:11:01.291Z,9.90
2022-12-26T13:13:33.085Z,8.90
2022-12-26T13:16:07.249Z,7.68
2022-12-26T13:18:40.518Z,10.05
2022-12-26T13:21:12.102Z,8.13
2022-12-26T13:23:44.161Z,7.18
2022-12-26T13:26:19.665Z,8.55
2022-12-26T13:28:54.352Z,8.00
2022-12-26T13:31:21.933Z,9.35
2022-12-26T13:33:50.335Z,8.90
2022-12-26T13:36:43.031Z,7.63
2022-12-26T13:39:41.611Z,5.10
2022-12-26T13:42:21.875Z,5.38
2022-12-26T13:44:52.861Z,5.80
2022-12-26T13:47:34.841Z,5.13
2022-12-26T13:50:38.894Z,5.68
2022-12-26T13:53:24.930Z,7.47
2022-12-26T13:55:53.134Z,7.65
2022-12-26T13:58:49.969Z,6.38
2022-12-26T14:01:35.819Z,5.95
2022-12-26T14:04:28.846Z,5.40
2022-12-26T14:07:10.032Z,6.25
2022-12-26T14:09:53.128Z,7.47
2022-12-26T14:12:42.380Z,5.38
2022-12-26T14:15:22.329Z,5.63
2022-12-26T14:18:00.428Z,4.15
2022-12-26T14:20:40.285Z,5.45
2022-12-26T14:23:21.395Z,5.05
2022-12-26T14:25:56.925Z,5.85
2022-12-26T14:28:29.384Z,5.25
2022-12-26T14:31:10.493Z,4.90
2022-12-26T14:33:48.421Z,5.38
2022-12-26T14:36:23.317Z,6.95
2022-12-26T14:38:56.791Z,5.78
2022-12-26T14:41:25.237Z,4.53
2022-12-26T14:43:57.884Z,4.88
2022-12-26T14:46:57.324Z,5.40
2022-12-26T14:49:37.648Z,6.03
2022-12-26T14:52:47.025Z,5.50
2022-12-26T14:55:48.687Z,6.60
2022-12-26T14:58:43.850Z,6.18
2022-12-26T15:01:56.336Z,6.78
2022-12-26T15:04:59.404Z,9.82
2022-12-26T15:08:08.097Z,7.57
2022-12-26T15:11:21.696Z,9.38
2022-12-26T15:14:10.488Z,9.73
2022-12-26T15:17:04.016Z,9.00
2022-12-26T15:20:13.065Z,7.55
2022-12-26T15:23:02.541Z,6.05
2022-12-26T15:25:59.872Z,5.50
2022-12-26T15:28:49.757Z,6.97
2022-12-26T15:31:30.547Z,7.78
2022-12-26T15:34:02.953Z,6.97
2022-12-26T15:36:41.254Z,6.18
2022-12-26T15:39:21.418Z,5.70
2022-12-26T15:41:52.518Z,5.18
2022-12-26T15:44:28.457Z,7.80
2022-12-26T15:47:07.174Z,8.18
2022-12-26T15:49:59.048Z,7.28
2022-12-26T15:52:36.833Z,5.75
2022-12-26T15:55:21.599Z,6.88
2022-12-26T15:57:57.845Z,6.53
2022-12-26T16:00:30.619Z,6.03
2022-12-26T16:03:17.082Z,6.60
2022-12-26T16:05:54.837Z,7.20
2022-12-26T16:08:44.971Z,6.00
2022-12-26T16:11:18.760Z,7.15
2022-12-26T16:13:55.339Z,5.40
2022-12-26T16:16:31.154Z,5.72
2022-12-26T16:19:15.065Z,6.95
2022-12-26T16:21:47.062Z,6.65
2022-12-26T16:24:16.500Z,7.95
2022-12-26T16:26:45.746Z,6.45
2022-12-26T16:29:17.117Z,6.18
2022-12-26T16:31:44.131Z,5.88
2022-12-26T16:34:20.704Z,5.97
2022-12-26T16:36:50.389Z,6.07
2022-12-26T16:39:21.911Z,7.18
2022-12-26T16:42:03.258Z,6.35
2022-12-26T16:44:37.583Z,4.97
2022-12-26T16:47:07.752Z,5.65
2022-12-26T16:49:36.845Z,7.85
2022-12-26T16:52:04.368Z,11.70
2022-12-26T16:54:37.207Z,8.38
2022-12-26T16:57:08.453Z,9.25
2022-12-26T16:59:48.541Z,8.73
2022-12-26T17:02:20.810Z,12.55
2022-12-26T17:04:58.843Z,8.55
2022-12-26T17:07:26.058Z,7.18
2022-12-26T17:09:55.884Z,5.10
2022-12-26T17:12:26.151Z,5.00
2022-12-26T17:14:55.095Z,5.20
2022-12-26T17:17:31.790Z,6.45
2022-12-26T17:20:43.876Z,6.10
2022-12-26T17:23:35.499Z,6.43
2022-12-26T17:26:24.079Z,4.38
2022-12-26T17:28:51.453Z,5.85
2022-12-26T17:31:23.423Z,6.20
2022-12-26T17:33:50.810Z,6.00
2022-12-26T17:37:08.357Z,4.88
2022-12-26T17:39:18.584Z,5.03
2022-12-26T17:41:51.163Z,4.85
2022-12-26T17:44:38.177Z,5.75
2022-12-26T17:47:15.801Z,6.03
2022-12-26T17:49:42.732Z,6.10
2022-12-26T17:52:12.349Z,7.47
2022-12-26T17:54:39.435Z,5.25
2022-12-26T17:57:06.290Z,5.03
2022-12-26T17:59:33.047Z,4.25
2022-12-26T18:01:59.912Z,4.35
2022-12-26T18:04:26.680Z,6.40
2022-12-26T18:06:55.555Z,6.22
2022-12-26T18:09:27.444Z,7.18
2022-12-26T18:11:55.104Z,4.55
2022-12-26T18:14:22.062Z,4.22
2022-12-26T18:16:50.368Z,3.33
2022-12-26T18:19:18.979Z,2.40
2022-12-26T18:21:46.146Z,2.78
2022-12-26T18:24:12.957Z,4.50
2022-12-26T18:26:44.361Z,3.83
2022-12-26T18:29:11.519Z,3.42
2022-12-26T18:31:38.411Z,4.00
2022-12-26T18:34:05.727Z,4.70
2022-12-26T18:36:34.479Z,4.50
2022-12-26T18:39:01.757Z,7.20
2022-12-26T18:41:28.492Z,6.07
2022-12-26T18:43:56.576Z,5.75
2022-12-26T18:46:25.026Z,5.97
2022-12-26T18:48:52.697Z,6.53
2022-12-26T18:51:20.203Z,5.43
2022-12-26T18:53:47.170Z,5.25
2022-12-26T18:56:15.898Z,5.15
2022-12-26T18:58:42.691Z,4.75
2022-12-26T19:01:16.397Z,4.95
2022-12-26T19:03:43.642Z,4.63
2022-12-26T19:06:13.284Z,12.80
2022-12-26T19:08:40.079Z,6.38
2022-12-26T19:11:07.339Z,6.25
2022-12-26T19:13:34.058Z,7.15
2022-12-26T19:16:00.889Z,7.40
2022-12-26T19:18:28.959Z,6.47
2022-12-26T19:20:55.811Z,6.30
2022-12-26T19:23:22.572Z,5.63
2022-12-26T19:25:49.592Z,4.80
2022-12-26T19:28:16.251Z,4.80
2022-12-26T19:30:43.108Z,4.28
2022-12-26T19:33:09.876Z,4.20
2022-12-26T19:35:38.171Z,5.10
2022-12-26T19:38:05.118Z,6.95
2022-12-26T19:40:31.843Z,3.97
2022-12-26T19:42:58.586Z,5.22
2022-12-26T19:45:25.387Z,5.93
2022-12-26T19:47:52.897Z,5.57
2022-12-26T19:50:19.582Z,6.38
2022-12-26T19:52:47.677Z,5.28
2022-12-26T19:55:14.772Z,6.70
2022-12-26T19:57:41.520Z,5.28
2022-12-26T20:00:10.206Z,5.10
2022-12-26T20:02:37.019Z,4.97
2022-12-26T20:05:04.247Z,4.50
2022-12-26T20:07:31.099Z,5.05
2022-12-26T20:09:59.223Z,4.63
2022-12-26T20:12:25.906Z,5.90
2022-12-26T20:14:52.689Z,4.00
2022-12-26T20:17:19.393Z,5.78
2022-12-26T20:19:50.321Z,5.55
2022-12-26T20:22:17.132Z,6.68
2022-12-26T20:24:43.886Z,5.70
2022-12-26T20:27:12.050Z,8.30
2022-12-26T20:29:39.499Z,6.00
2022-12-26T20:32:06.220Z,6.63
2022-12-26T20:34:32.873Z,7.50
2022-12-26T20:36:59.600Z,4.85
2022-12-26T20:39:26.598Z,5.70
2022-12-26T20:41:53.411Z,6.97
2022-12-26T20:44:21.570Z,5.90
2022-12-26T20:46:48.453Z,6.25
2022-12-26T20:49:15.314Z,7.50
2022-12-26T20:51:43.377Z,7.30
2022-12-26T20:54:11.621Z,7.20
2022-12-26T20:56:39.513Z,7.20
2022-12-26T20:59:08.257Z,6.63
2022-12-26T21:01:36.970Z,4.70
2022-12-26T21:04:04.741Z,4.00
2022-12-26T21:06:33.143Z,4.20
2022-12-26T21:08:59.860Z,4.85
2022-12-26T21:11:27.881Z,4.40
2022-12-26T21:13:57.166Z,4.13
2022-12-26T21:16:26.119Z,4.05
2022-12-26T21:18:54.432Z,5.47
2022-12-26T21:21:23.345Z,6.22
2022-12-26T21:23:54.134Z,8.65
2022-12-26T21:26:20.847Z,8.02
2022-12-26T21:28:47.758Z,4.47
2022-12-26T21:31:14.536Z,6.20
2022-12-26T21:33:44.747Z,3.92
2022-12-26T21:36:14.233Z,3.35
2022-12-26T21:38:41.589Z,6.28
2022-12-26T21:41:09.129Z,6.13
2022-12-26T21:43:38.938Z,3.38
2022-12-26T21:46:07.664Z,2.85
2022-12-26T21:48:34.926Z,2.42
2022-12-26T21:51:01.789Z,3.35
2022-12-26T21:53:29.813Z,2.45
2022-12-26T21:56:03.998Z,3.65
2022-12-26T21:58:30.823Z,3.72
2022-12-26T22:00:57.739Z,3.90
2022-12-26T22:03:24.589Z,1.95
2022-12-26T22:05:51.391Z,3.95
2022-12-26T22:08:18.143Z,4.18
2022-12-26T22:10:47.363Z,1.77
2022-12-26T22:13:14.090Z,2.55
2022-12-26T22:15:42.402Z,1.92
2022-12-26T22:18:09.124Z,2.15
2022-12-26T22:20:36.219Z,2.38
2022-12-26T22:23:02.957Z,4.13
2022-12-26T22:25:29.798Z,3.25
2022-12-26T22:27:58.716Z,3.97
2022-12-26T22:30:25.589Z,2.47
2022-12-26T22:32:52.317Z,4.18
2022-12-26T22:35:19.233Z,2.97
2022-12-26T22:37:46.000Z,2.20
2022-12-26T22:40:13.165Z,3.58
2022-12-26T22:42:39.897Z,2.65
2022-12-26T22:45:09.180Z,5.22
2022-12-26T22:47:35.887Z,3.10
2022-12-26T22:50:03.173Z,2.58
2022-12-26T22:52:29.924Z,3.63
2022-12-26T22:54:56.649Z,4.03
2022-12-26T22:57:23.375Z,4.63
2022-12-26T23:02:38.411Z,3.20
2022-12-26T23:05:06.451Z,3.42
2022-12-26T23:07:33.656Z,3.63
2022-12-26T23:10:00.697Z,3.58
2022-12-26T23:12:28.108Z,2.60
2022-12-26T23:14:55.096Z,4.63
2022-12-26T23:17:22.458Z,3.17
2022-12-26T23:19:51.926Z,3.88
2022-12-26T23:22:19.330Z,3.80
2022-12-26T23:24:46.175Z,3.00
2022-12-26T23:27:12.922Z,1.60
2022-12-26T23:29:39.595Z,2.10
2022-12-26T23:32:08.030Z,3.17
2022-12-26T23:34:34.944Z,4.18
2022-12-26T23:37:03.988Z,2.28
2022-12-26T23:39:30.734Z,3.92
2022-12-26T23:41:57.584Z,3.17
2022-12-26T23:44:24.264Z,1.83
2022-12-26T23:46:50.996Z,3.15
2022-12-26T23:49:17.699Z,2.70
2022-12-26T23:51:44.429Z,3.80
2022-12-26T23:54:12.530Z,3.28
2022-12-26T23:56:39.210Z,2.65
2022-12-26T23:59:06.289Z,2.45
